createdAt,value
2018-08-13T00:00:15.282Z,1018.4
2018-08-13T00:01:16.975Z,1018.4
2018-08-13T00:02:18.679Z,1018.4
2018-08-13T00:03:20.388Z,1018.4
2018-08-13T00:04:22.110Z,1018.4
2018-08-13T00:05:23.831Z,1018.4
2018-08-13T00:06:25.529Z,1018.4
2018-08-13T00:07:27.235Z,1018.4
2018-08-13T00:08:28.920Z,1018.4
2018-08-13T00:09:30.626Z,1018.4
2018-08-13T00:10:32.317Z,1018.4
2018-08-13T00:11:34.037Z,1018.4
2018-08-13T00:12:35.763Z,1018.4
2018-08-13T00:13:37.484Z,1018.4
2018-08-13T00:14:39.217Z,1018.4
2018-08-13T00:15:40.923Z,1018.4
2018-08-13T00:16:42.638Z,1018.4
2018-08-13T00:17:44.390Z,1018.4
2018-08-13T00:18:46.024Z,1018.4
2018-08-13T00:19:47.764Z,1018.4
2018-08-13T00:20:49.454Z,1018.4
2018-08-13T00:21:51.140Z,1018.3
2018-08-13T00:22:52.864Z,1018.4
2018-08-13T00:23:54.548Z,1018.3
2018-08-13T00:24:56.252Z,1018.3
2018-08-13T00:25:57.938Z,1018.3
2018-08-13T00:26:59.637Z,1018.3
2018-08-13T00:28:01.365Z,1018.3
2018-08-13T00:29:03.093Z,1018.3
2018-08-13T00:30:04.788Z,1018.3
2018-08-13T00:31:06.505Z,1018.3
2018-08-13T00:32:08.216Z,1018.3
2018-08-13T00:33:09.938Z,1018.3
2018-08-13T00:34:11.640Z,1018.2
2018-08-13T00:35:13.343Z,1018.2
2018-08-13T00:36:15.040Z,1018.3
2018-08-13T00:37:16.753Z,1018.2
2018-08-13T00:38:18.440Z,1018.2
2018-08-13T00:39:20.136Z,1018.2
2018-08-13T00:40:21.873Z,1018.2
2018-08-13T00:41:23.599Z,1018.2
2018-08-13T00:42:25.312Z,1018.2
2018-08-13T00:43:27.043Z,1018.1
2018-08-13T00:44:28.730Z,1018.1
2018-08-13T00:45:30.445Z,1018.1
2018-08-13T00:46:32.160Z,1018.2
2018-08-13T00:47:33.842Z,1018.1
2018-08-13T00:48:35.530Z,1018.1
2018-08-13T00:49:37.242Z,1018.1
2018-08-13T00:50:38.931Z,1018.1
2018-08-13T00:51:40.647Z,1018.1
2018-08-13T00:52:42.361Z,1018.1
2018-08-13T00:53:44.078Z,1018.1
2018-08-13T00:54:45.792Z,1018.0
2018-08-13T00:55:47.505Z,1018.0
2018-08-13T00:56:49.212Z,1018.0
2018-08-13T00:57:50.898Z,1018.0
2018-08-13T00:58:52.601Z,1018.0
2018-08-13T00:59:54.332Z,1018.0
2018-08-13T01:00:56.073Z,1018.0
2018-08-13T01:01:57.764Z,1018.0
2018-08-13T01:02:59.471Z,1018.0
2018-08-13T01:04:01.198Z,1018.0
2018-08-13T01:05:02.940Z,1018.0
2018-08-13T01:06:04.640Z,1018.0
2018-08-13T01:07:06.336Z,1018.1
2018-08-13T01:08:08.065Z,1018.0
2018-08-13T01:09:09.789Z,1018.0
2018-08-13T01:10:11.477Z,1018.0
2018-08-13T01:11:13.185Z,1018.0
2018-08-13T01:12:14.878Z,1018.0
2018-08-13T01:13:16.575Z,1018.0
2018-08-13T01:14:18.252Z,1018.0
2018-08-13T01:15:19.952Z,1018.0
2018-08-13T01:16:21.653Z,1018.0
2018-08-13T01:17:23.361Z,1018.0
2018-08-13T01:18:25.093Z,1017.9
2018-08-13T01:19:26.795Z,1017.9
2018-08-13T01:20:28.488Z,1018.0
2018-08-13T01:21:30.178Z,1018.0
2018-08-13T01:22:31.871Z,1017.9
2018-08-13T01:23:33.579Z,1018.0
2018-08-13T01:24:35.263Z,1017.9
2018-08-13T01:25:36.970Z,1017.9
2018-08-13T01:26:38.664Z,1017.9
2018-08-13T01:27:40.361Z,1017.9
2018-08-13T01:28:42.090Z,1017.9
2018-08-13T01:29:43.809Z,1017.9
2018-08-13T01:30:45.506Z,1017.8
2018-08-13T01:31:47.222Z,1017.9
2018-08-13T01:32:48.961Z,1017.9
2018-08-13T01:33:50.654Z,1017.9
2018-08-13T01:34:52.336Z,1017.9
2018-08-13T01:35:54.073Z,1017.8
2018-08-13T01:36:55.805Z,1017.8
2018-08-13T01:37:57.493Z,1017.8
2018-08-13T01:38:59.195Z,1017.8
2018-08-13T01:40:00.883Z,1017.8
2018-08-13T01:41:02.587Z,1017.8
2018-08-13T01:42:04.299Z,1017.8
2018-08-13T01:43:05.979Z,1017.8
2018-08-13T01:44:07.673Z,1017.8
2018-08-13T01:45:09.412Z,1017.8
2018-08-13T01:46:11.115Z,1017.8
2018-08-13T01:47:12.812Z,1017.8
2018-08-13T01:48:14.527Z,1017.8
2018-08-13T01:49:16.210Z,1017.8
2018-08-13T01:50:17.927Z,1017.8
2018-08-13T01:51:19.659Z,1017.8
2018-08-13T01:52:21.376Z,1017.8
2018-08-13T01:53:23.082Z,1017.8
2018-08-13T01:54:24.798Z,1017.8
2018-08-13T01:55:26.488Z,1017.8
2018-08-13T01:56:28.184Z,1017.8
2018-08-13T01:57:29.869Z,1017.8
2018-08-13T01:58:31.588Z,1017.8
2018-08-13T01:59:33.299Z,1017.8
2018-08-13T02:00:35.056Z,1017.8
2018-08-13T02:01:36.793Z,1017.8
2018-08-13T02:02:38.507Z,1017.8
2018-08-13T02:03:40.239Z,1017.8
2018-08-13T02:04:41.929Z,1017.8
2018-08-13T02:05:43.616Z,1017.8
2018-08-13T02:06:45.297Z,1017.8
2018-08-13T02:07:47.009Z,1017.8
2018-08-13T02:08:48.749Z,1017.8
2018-08-13T02:09:50.505Z,1017.9
2018-08-13T02:10:52.199Z,1017.9
2018-08-13T02:11:53.923Z,1018.0
2018-08-13T02:12:55.649Z,1017.9
2018-08-13T02:13:57.379Z,1018.0
2018-08-13T02:14:59.068Z,1018.0
2018-08-13T02:16:00.745Z,1018.0
2018-08-13T02:17:02.464Z,1018.0
2018-08-13T02:18:04.151Z,1018.0
2018-08-13T02:19:05.846Z,1018.0
2018-08-13T02:20:07.556Z,1018.0
2018-08-13T02:21:09.231Z,1018.0
2018-08-13T02:22:10.951Z,1018.0
2018-08-13T02:23:12.674Z,1018.0
2018-08-13T02:24:14.392Z,1018.0
2018-08-13T02:25:16.113Z,1018.0
2018-08-13T02:26:17.824Z,1017.9
2018-08-13T02:27:19.538Z,1017.9
2018-08-13T02:28:21.251Z,1017.9
2018-08-13T02:29:22.946Z,1017.9
2018-08-13T02:30:24.646Z,1017.9
2018-08-13T02:31:26.349Z,1017.9
2018-08-13T02:32:28.040Z,1017.9
2018-08-13T02:33:29.773Z,1017.9
2018-08-13T02:34:31.472Z,1017.9
2018-08-13T02:35:33.181Z,1017.9
2018-08-13T02:36:34.884Z,1017.9
2018-08-13T02:37:36.601Z,1017.9
2018-08-13T02:38:38.341Z,1017.9
2018-08-13T02:39:40.060Z,1017.9
2018-08-13T02:40:41.757Z,1017.9
2018-08-13T02:41:43.497Z,1017.9
2018-08-13T02:42:45.190Z,1017.9
2018-08-13T02:43:46.877Z,1017.9
2018-08-13T02:44:48.594Z,1017.9
2018-08-13T02:45:50.281Z,1017.9
2018-08-13T02:46:51.978Z,1017.9
2018-08-13T02:47:53.675Z,1017.9
2018-08-13T02:48:55.410Z,1017.9
2018-08-13T02:49:57.111Z,1017.9
2018-08-13T02:50:58.840Z,1017.9
2018-08-13T02:52:00.531Z,1017.9
2018-08-13T02:53:02.230Z,1017.9
2018-08-13T02:54:03.928Z,1017.9
2018-08-13T02:55:05.667Z,1017.9
2018-08-13T02:56:07.399Z,1017.9
2018-08-13T02:57:09.106Z,1017.9
2018-08-13T02:58:10.877Z,1017.9
2018-08-13T02:59:12.511Z,1017.9
2018-08-13T03:00:14.204Z,1017.9
2018-08-13T03:01:15.963Z,1017.9
2018-08-13T03:02:17.699Z,1017.9
2018-08-13T03:03:19.410Z,1017.8
2018-08-13T03:04:21.122Z,1017.8
2018-08-13T03:05:22.855Z,1017.8
2018-08-13T03:06:24.583Z,1017.8
2018-08-13T03:07:26.265Z,1017.9
2018-08-13T03:08:27.990Z,1017.8
2018-08-13T03:09:29.732Z,1017.8
2018-08-13T03:10:31.471Z,1017.8
2018-08-13T03:11:33.186Z,1017.8
2018-08-13T03:12:34.912Z,1017.8
2018-08-13T03:13:36.624Z,1017.8
2018-08-13T03:14:38.305Z,1017.8
2018-08-13T03:15:39.988Z,1017.8
2018-08-13T03:16:41.705Z,1017.8
2018-08-13T03:17:43.446Z,1017.8
2018-08-13T03:18:45.134Z,1017.7
2018-08-13T03:19:46.847Z,1017.7
2018-08-13T03:20:48.562Z,1017.7
2018-08-13T03:21:50.288Z,1017.7
2018-08-13T03:22:51.995Z,1017.7
2018-08-13T03:23:53.690Z,1017.7
2018-08-13T03:24:55.402Z,1017.7
2018-08-13T03:25:57.113Z,1017.7
2018-08-13T03:26:58.811Z,1017.7
2018-08-13T03:28:00.499Z,1017.7
2018-08-13T03:29:02.247Z,1017.6
2018-08-13T03:30:03.995Z,1017.6
2018-08-13T03:31:05.737Z,1017.6
2018-08-13T03:32:07.430Z,1017.6
2018-08-13T03:33:09.129Z,1017.6
2018-08-13T03:34:10.821Z,1017.6
2018-08-13T03:35:12.543Z,1017.6
2018-08-13T03:36:14.264Z,1017.6
2018-08-13T03:37:15.985Z,1017.6
2018-08-13T03:38:17.709Z,1017.6
2018-08-13T03:39:19.400Z,1017.5
2018-08-13T03:40:21.120Z,1017.6
2018-08-13T03:41:22.834Z,1017.6
2018-08-13T03:42:24.561Z,1017.5
2018-08-13T03:43:26.266Z,1017.5
2018-08-13T03:44:27.993Z,1017.5
2018-08-13T03:45:29.676Z,1017.5
2018-08-13T03:46:31.370Z,1017.5
2018-08-13T03:47:33.101Z,1017.5
2018-08-13T03:48:34.838Z,1017.6
2018-08-13T03:49:36.574Z,1017.6
2018-08-13T03:50:38.255Z,1017.6
2018-08-13T03:51:39.948Z,1017.6
2018-08-13T03:52:41.671Z,1017.6
2018-08-13T03:53:43.392Z,1017.6
2018-08-13T03:54:45.034Z,1017.7
2018-08-13T03:55:46.717Z,1017.7
2018-08-13T03:56:48.423Z,1017.7
2018-08-13T03:57:50.110Z,1017.7
2018-08-13T03:58:51.806Z,1017.6
2018-08-13T03:59:53.498Z,1017.6
2018-08-13T04:00:55.215Z,1017.6
2018-08-13T04:01:56.926Z,1017.6
2018-08-13T04:02:58.660Z,1017.6
2018-08-13T04:04:00.348Z,1017.6
2018-08-13T04:05:02.071Z,1017.6
2018-08-13T04:06:03.764Z,1017.6
2018-08-13T04:07:05.491Z,1017.6
2018-08-13T04:08:07.186Z,1017.6
2018-08-13T04:09:08.910Z,1017.6
2018-08-13T04:10:10.602Z,1017.6
2018-08-13T04:11:12.313Z,1017.7
2018-08-13T04:12:14.041Z,1017.6
2018-08-13T04:13:15.712Z,1017.6
2018-08-13T04:14:17.434Z,1017.7
2018-08-13T04:15:19.142Z,1017.6
2018-08-13T04:16:20.856Z,1017.6
2018-08-13T04:17:22.596Z,1017.6
2018-08-13T04:18:24.310Z,1017.6
2018-08-13T04:19:26.041Z,1017.6
2018-08-13T04:20:27.745Z,1017.6
2018-08-13T04:21:29.447Z,1017.6
2018-08-13T04:22:31.162Z,1017.6
2018-08-13T04:23:32.862Z,1017.6
2018-08-13T04:24:34.555Z,1017.6
2018-08-13T04:25:36.248Z,1017.7
2018-08-13T04:26:37.957Z,1017.7
2018-08-13T04:27:39.689Z,1017.7
2018-08-13T04:28:41.387Z,1017.8
2018-08-13T04:29:43.065Z,1017.8
2018-08-13T04:30:44.770Z,1017.8
2018-08-13T04:31:46.460Z,1017.8
2018-08-13T04:32:48.302Z,1017.8
2018-08-13T04:33:49.931Z,1017.8
2018-08-13T04:34:51.609Z,1017.8
2018-08-13T04:35:53.332Z,1017.8
2018-08-13T04:36:55.012Z,1017.8
2018-08-13T04:37:56.701Z,1017.8
2018-08-13T04:38:58.390Z,1017.9
2018-08-13T04:40:00.148Z,1017.8
2018-08-13T04:41:01.889Z,1017.9
2018-08-13T04:42:03.607Z,1017.9
2018-08-13T04:43:05.309Z,1017.9
2018-08-13T04:44:07.011Z,1017.9
2018-08-13T04:45:08.738Z,1017.9
2018-08-13T04:46:10.457Z,1017.9
2018-08-13T04:47:12.149Z,1017.8
2018-08-13T04:48:13.838Z,1017.9
2018-08-13T04:49:15.525Z,1017.8
2018-08-13T04:50:17.276Z,1017.9
2018-08-13T04:51:18.944Z,1017.8
2018-08-13T04:52:20.626Z,1017.9
2018-08-13T04:53:22.348Z,1017.9
2018-08-13T04:54:24.031Z,1017.9
2018-08-13T04:55:25.709Z,1018.0
2018-08-13T04:56:27.420Z,1018.0
2018-08-13T04:57:29.140Z,1017.9
2018-08-13T04:58:30.856Z,1018.0
2018-08-13T04:59:32.575Z,1017.9
2018-08-13T05:00:34.305Z,1017.9
2018-08-13T05:01:35.987Z,1017.9
2018-08-13T05:02:37.676Z,1018.0
2018-08-13T05:03:39.374Z,1018.0
2018-08-13T05:04:41.090Z,1018.0
2018-08-13T05:05:42.805Z,1018.0
2018-08-13T05:06:44.533Z,1018.1
2018-08-13T05:07:46.216Z,1018.0
2018-08-13T05:08:47.903Z,1018.1
2018-08-13T05:09:49.584Z,1018.1
2018-08-13T05:10:51.311Z,1018.1
2018-08-13T05:11:53.028Z,1018.1
2018-08-13T05:12:54.753Z,1018.1
2018-08-13T05:13:56.478Z,1018.1
2018-08-13T05:14:58.170Z,1018.1
2018-08-13T05:15:59.887Z,1018.1
2018-08-13T05:17:01.600Z,1018.1
2018-08-13T05:18:03.302Z,1018.1
2018-08-13T05:19:04.982Z,1018.1
2018-08-13T05:20:06.696Z,1018.1
2018-08-13T05:21:08.441Z,1018.1
2018-08-13T05:22:10.088Z,1018.1
2018-08-13T05:23:11.800Z,1018.1
2018-08-13T05:24:13.521Z,1018.1
2018-08-13T05:25:15.236Z,1018.1
2018-08-13T05:26:16.959Z,1018.1
2018-08-13T05:27:18.680Z,1018.0
2018-08-13T05:28:20.397Z,1018.1
2018-08-13T05:29:22.115Z,1018.1
2018-08-13T05:30:23.898Z,1018.1
2018-08-13T05:31:25.563Z,1018.1
2018-08-13T05:32:27.279Z,1018.1
2018-08-13T05:33:29.008Z,1018.1
2018-08-13T05:34:30.728Z,1018.2
2018-08-13T05:35:32.481Z,1018.2
2018-08-13T05:36:34.193Z,1018.2
2018-08-13T05:37:35.893Z,1018.2
2018-08-13T05:38:37.613Z,1018.2
2018-08-13T05:39:39.319Z,1018.2
2018-08-13T05:40:41.042Z,1018.2
2018-08-13T05:41:42.785Z,1018.2
2018-08-13T05:42:44.522Z,1018.2
2018-08-13T05:43:46.235Z,1018.2
2018-08-13T05:44:47.929Z,1018.2
2018-08-13T05:45:49.636Z,1018.3
2018-08-13T05:46:51.366Z,1018.2
2018-08-13T05:47:53.092Z,1018.3
2018-08-13T05:48:54.790Z,1018.3
2018-08-13T05:49:56.503Z,1018.3
2018-08-13T05:50:58.270Z,1018.4
2018-08-13T05:51:59.980Z,1018.4
2018-08-13T05:53:01.893Z,1018.3
2018-08-13T05:54:03.489Z,1018.3
2018-08-13T05:55:05.214Z,1018.3
2018-08-13T05:56:06.904Z,1018.3
2018-08-13T05:57:08.587Z,1018.4
2018-08-13T05:58:10.279Z,1018.3
2018-08-13T05:59:11.998Z,1018.3
2018-08-13T06:00:13.713Z,1018.3
2018-08-13T06:01:15.430Z,1018.3
2018-08-13T06:02:17.118Z,1018.3
2018-08-13T06:03:18.839Z,1018.3
2018-08-13T06:04:20.564Z,1018.3
2018-08-13T06:05:22.301Z,1018.3
2018-08-13T06:06:24.017Z,1018.3
2018-08-13T06:07:25.735Z,1018.4
2018-08-13T06:08:27.438Z,1018.4
2018-08-13T06:09:29.150Z,1018.4
2018-08-13T06:10:30.863Z,1018.4
2018-08-13T06:11:32.575Z,1018.4
2018-08-13T06:12:34.331Z,1018.4
2018-08-13T06:13:36.038Z,1018.4
2018-08-13T06:14:37.768Z,1018.4
2018-08-13T06:15:39.497Z,1018.4
2018-08-13T06:16:41.212Z,1018.5
2018-08-13T06:17:42.950Z,1018.5
2018-08-13T06:18:44.663Z,1018.5
2018-08-13T06:19:46.397Z,1018.5
2018-08-13T06:20:48.124Z,1018.5
2018-08-13T06:21:49.822Z,1018.5
2018-08-13T06:22:51.539Z,1018.6
2018-08-13T06:23:53.272Z,1018.6
2018-08-13T06:24:54.996Z,1018.6
2018-08-13T06:25:56.731Z,1018.6
2018-08-13T06:26:58.466Z,1018.6
2018-08-13T06:28:00.168Z,1018.7
2018-08-13T06:29:01.886Z,1018.6
2018-08-13T06:30:03.613Z,1018.7
2018-08-13T06:31:05.285Z,1018.7
2018-08-13T06:32:06.974Z,1018.7
2018-08-13T06:33:08.776Z,1018.7
2018-08-13T06:34:10.429Z,1018.7
2018-08-13T06:35:12.153Z,1018.7
2018-08-13T06:36:13.894Z,1018.7
2018-08-13T06:37:15.680Z,1018.7
2018-08-13T06:38:17.379Z,1018.7
2018-08-13T06:39:19.093Z,1018.7
2018-08-13T06:40:20.821Z,1018.7
2018-08-13T06:41:22.537Z,1018.7
2018-08-13T06:42:24.277Z,1018.7
2018-08-13T06:43:25.971Z,1018.7
2018-08-13T06:44:27.659Z,1018.7
2018-08-13T06:45:29.381Z,1018.7
2018-08-13T06:46:31.068Z,1018.8
2018-08-13T06:47:32.765Z,1018.7
2018-08-13T06:48:34.502Z,1018.8
2018-08-13T06:49:36.227Z,1018.7
2018-08-13T06:50:37.943Z,1018.7
2018-08-13T06:51:39.631Z,1018.7
2018-08-13T06:52:41.337Z,1018.7
2018-08-13T06:53:43.045Z,1018.7
2018-08-13T06:54:44.746Z,1018.7
2018-08-13T06:55:46.474Z,1018.7
2018-08-13T06:56:48.193Z,1018.7
2018-08-13T06:57:49.910Z,1018.7
2018-08-13T06:58:51.626Z,1018.8
2018-08-13T06:59:53.311Z,1018.8
2018-08-13T07:00:55.062Z,1018.8
2018-08-13T07:01:56.726Z,1018.8
2018-08-13T07:02:58.467Z,1018.8
2018-08-13T07:04:00.215Z,1018.8
2018-08-13T07:05:01.960Z,1018.8
2018-08-13T07:06:03.670Z,1018.8
2018-08-13T07:07:05.403Z,1018.8
2018-08-13T07:08:07.129Z,1018.8
2018-08-13T07:09:08.830Z,1018.9
2018-08-13T07:10:10.565Z,1018.8
2018-08-13T07:11:12.290Z,1018.8
2018-08-13T07:12:13.993Z,1018.9
2018-08-13T07:13:15.735Z,1018.8
2018-08-13T07:14:17.433Z,1018.9
2018-08-13T07:15:19.131Z,1018.8
2018-08-13T07:16:20.829Z,1018.8
2018-08-13T07:17:22.565Z,1018.8
2018-08-13T07:18:24.266Z,1018.9
2018-08-13T07:19:25.982Z,1018.9
2018-08-13T07:20:27.675Z,1018.9
2018-08-13T07:21:29.375Z,1018.9
2018-08-13T07:22:31.197Z,1018.9
2018-08-13T07:23:32.789Z,1018.9
2018-08-13T07:24:34.511Z,1018.9
2018-08-13T07:25:36.209Z,1019.0
2018-08-13T07:26:37.903Z,1018.9
2018-08-13T07:27:39.628Z,1019.0
2018-08-13T07:28:41.335Z,1019.0
2018-08-13T07:29:43.051Z,1019.0
2018-08-13T07:30:44.779Z,1019.0
2018-08-13T07:31:46.499Z,1019.0
2018-08-13T07:32:48.193Z,1019.1
2018-08-13T07:33:50.027Z,1019.1
2018-08-13T07:34:51.575Z,1019.1
2018-08-13T07:35:53.299Z,1019.1
2018-08-13T07:36:55.007Z,1019.1
2018-08-13T07:37:56.717Z,1019.1
2018-08-13T07:38:58.496Z,1019.1
2018-08-13T07:40:00.203Z,1019.1
2018-08-13T07:41:01.917Z,1019.1
2018-08-13T07:42:03.650Z,1019.2
2018-08-13T07:43:05.354Z,1019.1
2018-08-13T07:44:07.040Z,1019.2
2018-08-13T07:45:08.768Z,1019.2
2018-08-13T07:46:10.495Z,1019.1
2018-08-13T07:47:12.222Z,1019.1
2018-08-13T07:48:13.942Z,1019.2
2018-08-13T07:49:15.655Z,1019.2
2018-08-13T07:50:17.362Z,1019.1
2018-08-13T07:51:19.085Z,1019.1
2018-08-13T07:52:20.823Z,1019.1
2018-08-13T07:53:22.509Z,1019.1
2018-08-13T07:54:24.203Z,1019.1
2018-08-13T07:55:25.905Z,1019.2
2018-08-13T07:56:27.601Z,1019.1
2018-08-13T07:57:29.317Z,1019.2
2018-08-13T07:58:31.045Z,1019.2
2018-08-13T07:59:32.736Z,1019.2
2018-08-13T08:00:34.438Z,1019.2
2018-08-13T08:01:36.160Z,1019.2
2018-08-13T08:02:37.854Z,1019.2
2018-08-13T08:03:39.611Z,1019.2
2018-08-13T08:04:41.339Z,1019.2
2018-08-13T08:05:43.057Z,1019.2
2018-08-13T08:06:45.378Z,1019.3
2018-08-13T08:07:47.094Z,1019.2
2018-08-13T08:08:48.797Z,1019.2
2018-08-13T08:09:50.491Z,1019.2
2018-08-13T08:10:52.177Z,1019.2
2018-08-13T08:11:53.900Z,1019.3
2018-08-13T08:12:55.776Z,1019.3
2018-08-13T08:13:57.492Z,1019.3
2018-08-13T08:14:59.222Z,1019.3
2018-08-13T08:16:01.495Z,1019.3
2018-08-13T08:17:03.134Z,1019.3
2018-08-13T08:18:04.859Z,1019.3
2018-08-13T08:19:06.755Z,1019.2
2018-08-13T08:20:08.504Z,1019.2
2018-08-13T08:21:10.360Z,1019.3
2018-08-13T08:22:12.110Z,1019.3
2018-08-13T08:23:15.076Z,1019.3
2018-08-13T08:24:17.483Z,1019.3
2018-08-13T08:25:19.617Z,1019.3
2018-08-13T08:26:21.799Z,1019.4
2018-08-13T08:27:24.039Z,1019.3
2018-08-13T08:28:26.358Z,1019.3
2018-08-13T08:29:28.612Z,1019.4
2018-08-13T08:30:30.812Z,1019.4
2018-08-13T08:31:32.569Z,1019.4
2018-08-13T08:32:34.671Z,1019.4
2018-08-13T08:33:36.966Z,1019.4
2018-08-13T08:34:39.140Z,1019.4
2018-08-13T08:35:41.330Z,1019.5
2018-08-13T08:36:43.544Z,1019.3
2018-08-13T08:37:45.735Z,1019.4
2018-08-13T08:38:47.869Z,1019.4
2018-08-13T08:39:50.156Z,1019.5
2018-08-13T08:40:52.338Z,1019.5
2018-08-13T08:41:54.376Z,1019.4
2018-08-13T08:42:57.372Z,1019.4
2018-08-13T08:43:59.619Z,1019.4
2018-08-13T08:45:01.811Z,1019.4
2018-08-13T08:46:04.018Z,1019.4
2018-08-13T08:47:05.766Z,1019.4
2018-08-13T08:48:07.761Z,1019.4
2018-08-13T08:49:09.767Z,1019.4
2018-08-13T08:50:11.739Z,1019.4
2018-08-13T08:51:13.874Z,1019.4
2018-08-13T08:52:15.931Z,1019.5
2018-08-13T08:53:17.801Z,1019.5
2018-08-13T08:54:19.546Z,1019.5
2018-08-13T08:55:21.293Z,1019.5
2018-08-13T08:56:23.054Z,1019.5
2018-08-13T08:57:24.843Z,1019.5
2018-08-13T08:58:26.554Z,1019.5
2018-08-13T08:59:28.277Z,1019.5
2018-08-13T09:00:30.040Z,1019.6
2018-08-13T09:01:31.779Z,1019.5
2018-08-13T09:02:33.513Z,1019.6
2018-08-13T09:03:35.254Z,1019.5
2018-08-13T09:04:36.990Z,1019.5
2018-08-13T09:05:38.715Z,1019.5
2018-08-13T09:06:40.489Z,1019.5
2018-08-13T09:07:42.217Z,1019.5
2018-08-13T09:08:43.943Z,1019.6
2018-08-13T09:09:45.704Z,1019.6
2018-08-13T09:10:47.438Z,1019.6
2018-08-13T09:11:49.170Z,1019.6
2018-08-13T09:12:51.038Z,1019.6
2018-08-13T09:13:52.762Z,1019.6
2018-08-13T09:14:54.513Z,1019.6
2018-08-13T09:15:56.275Z,1019.7
2018-08-13T09:16:58.077Z,1019.7
2018-08-13T09:17:59.781Z,1019.7
2018-08-13T09:19:01.590Z,1019.6
2018-08-13T09:20:03.305Z,1019.7
2018-08-13T09:21:05.067Z,1019.6
2018-08-13T09:22:06.820Z,1019.7
2018-08-13T09:23:08.598Z,1019.6
2018-08-13T09:24:10.320Z,1019.6
2018-08-13T09:25:12.080Z,1019.6
2018-08-13T09:26:13.791Z,1019.5
2018-08-13T09:27:15.557Z,1019.6
2018-08-13T09:28:17.293Z,1019.5
2018-08-13T09:29:19.007Z,1019.6
2018-08-13T09:30:20.754Z,1019.5
2018-08-13T09:31:22.525Z,1019.5
2018-08-13T09:32:24.263Z,1019.5
2018-08-13T09:33:25.997Z,1019.5
2018-08-13T09:34:27.750Z,1019.6
2018-08-13T09:35:29.535Z,1019.5
2018-08-13T09:36:31.332Z,1019.6
2018-08-13T09:37:32.987Z,1019.6
2018-08-13T09:38:34.680Z,1019.6
2018-08-13T09:39:36.386Z,1019.6
2018-08-13T09:40:38.122Z,1019.6
2018-08-13T09:41:39.824Z,1019.6
2018-08-13T09:42:41.516Z,1019.7
2018-08-13T09:43:43.212Z,1019.6
2018-08-13T09:44:44.947Z,1019.7
2018-08-13T09:45:46.652Z,1019.7
2018-08-13T09:46:48.385Z,1019.7
2018-08-13T09:47:50.107Z,1019.7
2018-08-13T09:48:51.834Z,1019.7
2018-08-13T09:49:53.535Z,1019.7
2018-08-13T09:50:55.241Z,1019.7
2018-08-13T09:51:56.944Z,1019.7
2018-08-13T09:52:58.640Z,1019.6
2018-08-13T09:54:00.373Z,1019.7
2018-08-13T09:55:02.105Z,1019.7
2018-08-13T09:56:03.801Z,1019.7
2018-08-13T09:57:05.491Z,1019.7
2018-08-13T09:58:07.189Z,1019.6
2018-08-13T09:59:08.920Z,1019.6
2018-08-13T10:00:10.694Z,1019.6
2018-08-13T10:01:12.379Z,1019.7
2018-08-13T10:02:14.112Z,1019.6
2018-08-13T10:03:15.826Z,1019.7
2018-08-13T10:04:17.558Z,1019.7
2018-08-13T10:05:19.300Z,1019.7
2018-08-13T10:06:21.019Z,1019.7
2018-08-13T10:07:22.737Z,1019.7
2018-08-13T10:08:24.442Z,1019.7
2018-08-13T10:09:26.199Z,1019.7
2018-08-13T10:10:27.887Z,1019.7
2018-08-13T10:11:29.593Z,1019.7
2018-08-13T10:12:31.336Z,1019.7
2018-08-13T10:13:33.022Z,1019.7
2018-08-13T10:14:34.725Z,1019.7
2018-08-13T10:15:36.441Z,1019.7
2018-08-13T10:16:38.234Z,1019.7
2018-08-13T10:17:39.964Z,1019.7
2018-08-13T10:18:41.642Z,1019.7
2018-08-13T10:19:43.357Z,1019.7
2018-08-13T10:20:45.094Z,1019.7
2018-08-13T10:21:46.838Z,1019.8
2018-08-13T10:22:48.558Z,1019.8
2018-08-13T10:23:50.259Z,1019.8
2018-08-13T10:24:51.988Z,1019.8
2018-08-13T10:25:53.742Z,1019.8
2018-08-13T10:26:55.487Z,1019.8
2018-08-13T10:27:57.219Z,1019.8
2018-08-13T10:28:58.928Z,1019.8
2018-08-13T10:30:00.681Z,1019.8
2018-08-13T10:31:02.408Z,1019.8
2018-08-13T10:32:04.119Z,1019.8
2018-08-13T10:33:05.840Z,1019.8
2018-08-13T10:34:07.542Z,1019.8
2018-08-13T10:35:09.267Z,1019.8
2018-08-13T10:36:10.987Z,1019.9
2018-08-13T10:37:12.685Z,1019.8
2018-08-13T10:38:14.397Z,1019.8
2018-08-13T10:39:16.123Z,1019.9
2018-08-13T10:40:17.828Z,1019.8
2018-08-13T10:41:19.550Z,1019.9
2018-08-13T10:42:21.287Z,1019.8
2018-08-13T10:43:23.044Z,1019.8
2018-08-13T10:44:24.755Z,1019.8
2018-08-13T10:45:26.444Z,1019.8
2018-08-13T10:46:28.140Z,1019.9
2018-08-13T10:47:29.873Z,1019.8
2018-08-13T10:48:31.599Z,1019.8
2018-08-13T10:49:33.338Z,1019.9
2018-08-13T10:50:35.051Z,1019.8
2018-08-13T10:51:36.781Z,1019.8
2018-08-13T10:52:38.510Z,1019.8
2018-08-13T10:53:40.224Z,1019.7
2018-08-13T10:54:41.929Z,1019.8
2018-08-13T10:55:43.634Z,1019.8
2018-08-13T10:56:45.346Z,1019.8
2018-08-13T10:57:47.050Z,1019.7
2018-08-13T10:58:48.744Z,1019.7
2018-08-13T10:59:50.444Z,1019.8
2018-08-13T11:00:52.135Z,1019.7
2018-08-13T11:01:53.847Z,1019.7
2018-08-13T11:02:55.584Z,1019.7
2018-08-13T11:03:57.282Z,1019.7
2018-08-13T11:04:59.763Z,1019.8
2018-08-13T11:06:01.492Z,1019.7
2018-08-13T11:07:03.221Z,1019.6
2018-08-13T11:08:04.945Z,1019.7
2018-08-13T11:09:06.645Z,1019.7
2018-08-13T11:10:08.339Z,1019.7
2018-08-13T11:11:10.063Z,1019.7
2018-08-13T11:12:11.769Z,1019.6
2018-08-13T11:13:13.453Z,1019.7
2018-08-13T11:14:15.184Z,1019.7
2018-08-13T11:15:16.903Z,1019.7
2018-08-13T11:16:18.580Z,1019.7
2018-08-13T11:17:20.322Z,1019.7
2018-08-13T11:18:22.051Z,1019.7
2018-08-13T11:19:23.750Z,1019.7
2018-08-13T11:20:25.463Z,1019.7
2018-08-13T11:21:27.186Z,1019.7
2018-08-13T11:22:28.882Z,1019.8
2018-08-13T11:23:30.609Z,1019.6
2018-08-13T11:24:32.315Z,1019.6
2018-08-13T11:25:33.998Z,1019.6
2018-08-13T11:26:35.686Z,1019.6
2018-08-13T11:27:37.406Z,1019.7
2018-08-13T11:28:39.164Z,1019.6
2018-08-13T11:29:40.853Z,1019.6
2018-08-13T11:30:42.583Z,1019.6
2018-08-13T11:31:44.316Z,1019.6
2018-08-13T11:32:46.029Z,1019.6
2018-08-13T11:33:47.790Z,1019.5
2018-08-13T11:34:49.519Z,1019.6
2018-08-13T11:35:51.172Z,1019.6
2018-08-13T11:36:52.896Z,1019.6
2018-08-13T11:37:54.637Z,1019.6
2018-08-13T11:38:56.403Z,1019.6
2018-08-13T11:39:58.147Z,1019.5
2018-08-13T11:40:59.871Z,1019.6
2018-08-13T11:42:01.578Z,1019.6
2018-08-13T11:43:03.282Z,1019.5
2018-08-13T11:44:04.977Z,1019.6
2018-08-13T11:45:06.728Z,1019.5
2018-08-13T11:46:08.459Z,1019.5
2018-08-13T11:47:10.157Z,1019.6
2018-08-13T11:48:11.868Z,1019.5
2018-08-13T11:49:13.576Z,1019.5
2018-08-13T11:50:15.280Z,1019.6
2018-08-13T11:51:16.981Z,1019.5
2018-08-13T11:52:18.674Z,1019.5
2018-08-13T11:53:20.365Z,1019.5
2018-08-13T11:54:22.037Z,1019.5
2018-08-13T11:55:23.735Z,1019.5
2018-08-13T11:56:25.493Z,1019.5
2018-08-13T11:57:27.139Z,1019.5
2018-08-13T11:58:28.851Z,1019.5
2018-08-13T11:59:30.558Z,1019.5
2018-08-13T12:00:32.243Z,1019.5
2018-08-13T12:01:33.944Z,1019.6
2018-08-13T12:02:35.623Z,1019.4
2018-08-13T12:03:37.330Z,1019.4
2018-08-13T12:04:39.013Z,1019.5
2018-08-13T12:05:40.683Z,1019.4
2018-08-13T12:06:42.358Z,1019.5
2018-08-13T12:07:44.057Z,1019.5
2018-08-13T12:08:45.746Z,1019.5
2018-08-13T12:09:47.483Z,1019.6
2018-08-13T12:10:49.226Z,1019.7
2018-08-13T12:11:50.963Z,1019.9
2018-08-13T12:12:52.661Z,1020.1
2018-08-13T12:13:54.360Z,1020.3
2018-08-13T12:14:56.097Z,1020.4
2018-08-13T12:15:57.853Z,1020.4
2018-08-13T12:16:59.562Z,1020.4
2018-08-13T12:18:01.301Z,1020.4
2018-08-13T12:19:03.045Z,1020.3
2018-08-13T12:20:04.763Z,1020.4
2018-08-13T12:21:06.494Z,1020.3
2018-08-13T12:22:08.219Z,1020.3
2018-08-13T12:23:10.012Z,1020.4
2018-08-13T12:24:11.734Z,1020.3
2018-08-13T12:25:13.526Z,1020.3
2018-08-13T12:26:15.298Z,1020.3
2018-08-13T12:27:17.001Z,1020.3
2018-08-13T12:28:18.708Z,1020.3
2018-08-13T12:29:20.457Z,1020.4
2018-08-13T12:30:22.253Z,1020.4
2018-08-13T12:31:23.982Z,1020.4
2018-08-13T12:32:25.697Z,1020.4
2018-08-13T12:33:27.441Z,1020.4
2018-08-13T12:34:29.156Z,1020.4
2018-08-13T12:35:30.864Z,1020.4
2018-08-13T12:36:32.574Z,1020.4
2018-08-13T12:37:34.355Z,1020.4
2018-08-13T12:38:36.173Z,1020.4
2018-08-13T12:39:37.915Z,1020.5
2018-08-13T12:40:39.675Z,1020.5
2018-08-13T12:41:41.425Z,1020.5
2018-08-13T12:42:43.177Z,1020.5
2018-08-13T12:43:44.884Z,1020.4
2018-08-13T12:44:46.597Z,1020.5
2018-08-13T12:45:48.337Z,1020.5
2018-08-13T12:46:50.057Z,1020.5
2018-08-13T12:47:51.804Z,1020.5
2018-08-13T12:48:53.534Z,1020.4
2018-08-13T12:49:55.289Z,1020.5